sensor_id;sensor_type;location;lat;lon;timestamp;P1;durP1;ratioP1;P2;durP2;ratioP2
32399;SDS011;45045;45.440;9.178;2023-06-26T00:00:23;7.60;;;2.97;;
32399;SDS011;45045;45.440;9.178;2023-06-26T00:02:49;6.75;;;2.92;;
32399;SDS011;45045;45.440;9.178;2023-06-26T00:05:16;5.95;;;3.40;;
32399;SDS011;45045;45.440;9.178;2023-06-26T00:07:43;7.13;;;3.40;;
32399;SDS011;45045;45.440;9.178;2023-06-26T00:10:08;8.85;;;3.40;;
32399;SDS011;45045;45.440;9.178;2023-06-26T00:12:34;7.57;;;3.25;;
32399;SDS011;45045;45.440;9.178;2023-06-26T00:15:00;8.57;;;3.42;;
32399;SDS011;45045;45.440;9.178;2023-06-26T00:17:26;8.32;;;4.15;;
32399;SDS011;45045;45.440;9.178;2023-06-26T00:19:52;6.80;;;3.42;;
32399;SDS011;45045;45.440;9.178;2023-06-26T00:22:18;8.40;;;3.75;;
32399;SDS011;45045;45.440;9.178;2023-06-26T00:24:43;7.38;;;3.88;;
32399;SDS011;45045;45.440;9.178;2023-06-26T00:27:12;6.47;;;3.78;;
32399;SDS011;45045;45.440;9.178;2023-06-26T00:29:38;7.75;;;3.95;;
32399;SDS011;45045;45.440;9.178;2023-06-26T00:32:04;7.57;;;3.72;;
32399;SDS011;45045;45.440;9.178;2023-06-26T00:34:31;5.50;;;3.88;;
32399;SDS011;45045;45.440;9.178;2023-06-26T00:36:58;8.13;;;4.03;;
32399;SDS011;45045;45.440;9.178;2023-06-26T00:39:25;7.68;;;3.97;;
32399;SDS011;45045;45.440;9.178;2023-06-26T00:41:51;6.00;;;3.65;;
32399;SDS011;45045;45.440;9.178;2023-06-26T00:44:18;7.72;;;3.72;;
32399;SDS011;45045;45.440;9.178;2023-06-26T00:46:44;7.95;;;3.53;;
32399;SDS011;45045;45.440;9.178;2023-06-26T00:49:10;9.38;;;3.80;;
32399;SDS011;45045;45.440;9.178;2023-06-26T00:51:37;10.88;;;4.30;;
32399;SDS011;45045;45.440;9.178;2023-06-26T00:54:03;9.10;;;3.92;;
32399;SDS011;45045;45.440;9.178;2023-06-26T00:56:29;8.02;;;3.30;;
32399;SDS011;45045;45.440;9.178;2023-06-26T00:58:56;9.13;;;3.63;;
32399;SDS011;45045;45.440;9.178;2023-06-26T01:01:24;9.38;;;3.70;;
32399;SDS011;45045;45.440;9.178;2023-06-26T01:03:50;6.40;;;3.50;;
32399;SDS011;45045;45.440;9.178;2023-06-26T01:06:19;11.10;;;3.47;;
32399;SDS011;45045;45.440;9.178;2023-06-26T01:08:48;6.32;;;3.70;;
32399;SDS011;45045;45.440;9.178;2023-06-26T01:11:15;8.15;;;3.53;;
32399;SDS011;45045;45.440;9.178;2023-06-26T01:13:41;7.03;;;3.67;;
32399;SDS011;45045;45.440;9.178;2023-06-26T01:16:09;8.60;;;3.80;;
32399;SDS011;45045;45.440;9.178;2023-06-26T01:18:35;6.93;;;3.95;;
32399;SDS011;45045;45.440;9.178;2023-06-26T01:21:07;6.78;;;3.45;;
32399;SDS011;45045;45.440;9.178;2023-06-26T01:23:39;6.38;;;3.63;;
32399;SDS011;45045;45.440;9.178;2023-06-26T01:26:26;5.93;;;3.58;;
32399;SDS011;45045;45.440;9.178;2023-06-26T01:28:54;4.75;;;3.35;;
32399;SDS011;45045;45.440;9.178;2023-06-26T01:31:23;6.28;;;3.75;;
32399;SDS011;45045;45.440;9.178;2023-06-26T01:33:50;6.43;;;3.38;;
32399;SDS011;45045;45.440;9.178;2023-06-26T01:36:16;6.10;;;3.15;;
32399;SDS011;45045;45.440;9.178;2023-06-26T01:38:42;7.03;;;3.60;;
32399;SDS011;45045;45.440;9.178;2023-06-26T01:41:09;4.85;;;3.17;;
32399;SDS011;45045;45.440;9.178;2023-06-26T01:44:23;5.50;;;3.45;;
32399;SDS011;45045;45.440;9.178;2023-06-26T01:46:30;5.97;;;2.90;;
32399;SDS011;45045;45.440;9.178;2023-06-26T01:49:18;8.40;;;4.47;;
32399;SDS011;45045;45.440;9.178;2023-06-26T01:52:07;5.22;;;3.33;;
32399;SDS011;45045;45.440;9.178;2023-06-26T01:57:22;7.50;;;3.15;;
32399;SDS011;45045;45.440;9.178;2023-06-26T01:59:51;6.30;;;3.58;;
32399;SDS011;45045;45.440;9.178;2023-06-26T02:02:17;5.18;;;3.55;;
32399;SDS011;45045;45.440;9.178;2023-06-26T02:04:43;5.07;;;3.20;;
32399;SDS011;45045;45.440;9.178;2023-06-26T02:07:09;6.82;;;3.55;;
32399;SDS011;45045;45.440;9.178;2023-06-26T02:09:35;4.93;;;3.20;;
32399;SDS011;45045;45.440;9.178;2023-06-26T02:12:01;7.93;;;3.80;;
32399;SDS011;45045;45.440;9.178;2023-06-26T02:14:27;11.02;;;3.30;;
32399;SDS011;45045;45.440;9.178;2023-06-26T02:16:53;7.43;;;3.45;;
32399;SDS011;45045;45.440;9.178;2023-06-26T02:19:18;6.93;;;3.53;;
32399;SDS011;45045;45.440;9.178;2023-06-26T02:21:49;6.45;;;3.00;;
32399;SDS011;45045;45.440;9.178;2023-06-26T02:24:14;6.13;;;3.55;;
32399;SDS011;45045;45.440;9.178;2023-06-26T02:26:40;6.80;;;3.50;;
32399;SDS011;45045;45.440;9.178;2023-06-26T02:29:06;6.45;;;3.55;;
32399;SDS011;45045;45.440;9.178;2023-06-26T02:31:31;6.97;;;3.15;;
32399;SDS011;45045;45.440;9.178;2023-06-26T02:33:57;5.80;;;3.40;;
32399;SDS011;45045;45.440;9.178;2023-06-26T02:36:23;6.90;;;2.97;;
32399;SDS011;45045;45.440;9.178;2023-06-26T02:38:49;6.95;;;3.55;;
32399;SDS011;45045;45.440;9.178;2023-06-26T02:41:14;5.78;;;3.63;;
32399;SDS011;45045;45.440;9.178;2023-06-26T02:43:40;6.10;;;3.47;;
32399;SDS011;45045;45.440;9.178;2023-06-26T02:46:06;6.03;;;3.40;;
32399;SDS011;45045;45.440;9.178;2023-06-26T02:48:31;6.63;;;3.22;;
32399;SDS011;45045;45.440;9.178;2023-06-26T02:50:57;5.55;;;3.65;;
32399;SDS011;45045;45.440;9.178;2023-06-26T02:53:22;6.18;;;3.30;;
32399;SDS011;45045;45.440;9.178;2023-06-26T02:55:50;6.95;;;4.00;;
32399;SDS011;45045;45.440;9.178;2023-06-26T02:58:16;5.47;;;3.42;;
32399;SDS011;45045;45.440;9.178;2023-06-26T03:00:44;5.43;;;3.53;;
32399;SDS011;45045;45.440;9.178;2023-06-26T03:03:09;6.45;;;3.30;;
32399;SDS011;45045;45.440;9.178;2023-06-26T03:05:37;6.22;;;3.75;;
32399;SDS011;45045;45.440;9.178;2023-06-26T03:08:03;6.25;;;3.47;;
32399;SDS011;45045;45.440;9.178;2023-06-26T03:10:29;7.28;;;3.67;;
32399;SDS011;45045;45.440;9.178;2023-06-26T03:12:56;9.23;;;4.03;;
32399;SDS011;45045;45.440;9.178;2023-06-26T03:15:21;6.30;;;3.40;;
32399;SDS011;45045;45.440;9.178;2023-06-26T03:17:47;6.60;;;3.80;;
32399;SDS011;45045;45.440;9.178;2023-06-26T03:20:12;5.43;;;3.53;;
32399;SDS011;45045;45.440;9.178;2023-06-26T03:22:38;6.63;;;3.38;;
32399;SDS011;45045;45.440;9.178;2023-06-26T03:25:04;4.50;;;3.33;;
32399;SDS011;45045;45.440;9.178;2023-06-26T03:27:30;5.40;;;3.47;;
32399;SDS011;45045;45.440;9.178;2023-06-26T03:29:56;4.95;;;3.35;;
32399;SDS011;45045;45.440;9.178;2023-06-26T03:32:22;4.90;;;3.38;;
32399;SDS011;45045;45.440;9.178;2023-06-26T03:34:48;7.10;;;3.47;;
32399;SDS011;45045;45.440;9.178;2023-06-26T03:37:14;7.72;;;3.70;;
32399;SDS011;45045;45.440;9.178;2023-06-26T03:39:40;8.77;;;5.05;;
32399;SDS011;45045;45.440;9.178;2023-06-26T03:42:06;12.77;;;9.02;;
32399;SDS011;45045;45.440;9.178;2023-06-26T03:44:32;19.27;;;12.05;;
32399;SDS011;45045;45.440;9.178;2023-06-26T03:46:58;22.10;;;14.07;;
32399;SDS011;45045;45.440;9.178;2023-06-26T03:49:23;18.63;;;13.80;;
32399;SDS011;45045;45.440;9.178;2023-06-26T03:51:49;22.17;;;14.68;;
32399;SDS011;45045;45.440;9.178;2023-06-26T03:54:14;21.52;;;14.50;;
32399;SDS011;45045;45.440;9.178;2023-06-26T03:56:40;22.58;;;14.85;;
32399;SDS011;45045;45.440;9.178;2023-06-26T03:59:06;19.83;;;13.50;;
32399;SDS011;45045;45.440;9.178;2023-06-26T04:01:32;19.23;;;13.73;;
32399;SDS011;45045;45.440;9.178;2023-06-26T04:03:57;19.60;;;13.68;;
32399;SDS011;45045;45.440;9.178;2023-06-26T04:06:25;22.80;;;11.88;;
32399;SDS011;45045;45.440;9.178;2023-06-26T04:08:50;17.48;;;11.25;;
32399;SDS011;45045;45.440;9.178;2023-06-26T04:11:17;17.42;;;11.02;;
32399;SDS011;45045;45.440;9.178;2023-06-26T04:13:43;15.70;;;10.57;;
32399;SDS011;45045;45.440;9.178;2023-06-26T04:16:09;18.92;;;11.23;;
32399;SDS011;45045;45.440;9.178;2023-06-26T04:18:37;12.10;;;9.60;;
32399;SDS011;45045;45.440;9.178;2023-06-26T04:21:10;11.82;;;8.30;;
32399;SDS011;45045;45.440;9.178;2023-06-26T04:23:39;12.32;;;7.88;;
32399;SDS011;45045;45.440;9.178;2023-06-26T04:26:06;9.02;;;6.63;;
32399;SDS011;45045;45.440;9.178;2023-06-26T04:28:33;10.90;;;6.95;;
32399;SDS011;45045;45.440;9.178;2023-06-26T04:31:02;8.23;;;5.88;;
32399;SDS011;45045;45.440;9.178;2023-06-26T04:33:45;8.82;;;4.80;;
32399;SDS011;45045;45.440;9.178;2023-06-26T04:36:15;8.32;;;4.20;;
32399;SDS011;45045;45.440;9.178;2023-06-26T04:38:43;10.82;;;4.30;;
32399;SDS011;45045;45.440;9.178;2023-06-26T04:41:10;8.50;;;3.92;;
32399;SDS011;45045;45.440;9.178;2023-06-26T04:43:36;6.25;;;4.22;;
32399;SDS011;45045;45.440;9.178;2023-06-26T04:46:04;8.02;;;3.38;;
32399;SDS011;45045;45.440;9.178;2023-06-26T04:48:30;6.22;;;3.92;;
32399;SDS011;45045;45.440;9.178;2023-06-26T04:50:56;7.47;;;3.60;;
32399;SDS011;45045;45.440;9.178;2023-06-26T04:53:24;8.55;;;3.83;;
32399;SDS011;45045;45.440;9.178;2023-06-26T04:55:53;9.98;;;3.95;;
32399;SDS011;45045;45.440;9.178;2023-06-26T04:58:21;7.05;;;3.67;;
32399;SDS011;45045;45.440;9.178;2023-06-26T05:00:47;9.55;;;4.35;;
32399;SDS011;45045;45.440;9.178;2023-06-26T05:03:13;8.80;;;4.30;;
32399;SDS011;45045;45.440;9.178;2023-06-26T05:05:43;7.03;;;3.80;;
32399;SDS011;45045;45.440;9.178;2023-06-26T05:08:18;8.18;;;3.88;;
32399;SDS011;45045;45.440;9.178;2023-06-26T05:10:49;6.75;;;3.58;;
32399;SDS011;45045;45.440;9.178;2023-06-26T05:13:14;6.85;;;3.75;;
32399;SDS011;45045;45.440;9.178;2023-06-26T05:15:43;7.95;;;3.90;;
32399;SDS011;45045;45.440;9.178;2023-06-26T05:18:09;8.35;;;3.78;;
32399;SDS011;45045;45.440;9.178;2023-06-26T05:20:35;7.43;;;3.67;;
32399;SDS011;45045;45.440;9.178;2023-06-26T05:23:02;9.43;;;3.75;;
32399;SDS011;45045;45.440;9.178;2023-06-26T05:25:28;6.10;;;3.42;;
32399;SDS011;45045;45.440;9.178;2023-06-26T05:27:57;7.05;;;3.45;;
32399;SDS011;45045;45.440;9.178;2023-06-26T05:30:23;9.93;;;4.20;;
32399;SDS011;45045;45.440;9.178;2023-06-26T05:32:50;8.18;;;3.60;;
32399;SDS011;45045;45.440;9.178;2023-06-26T05:35:18;7.00;;;3.78;;
32399;SDS011;45045;45.440;9.178;2023-06-26T05:37:45;7.22;;;3.53;;
32399;SDS011;45045;45.440;9.178;2023-06-26T05:40:17;7.88;;;3.95;;
32399;SDS011;45045;45.440;9.178;2023-06-26T05:42:44;9.73;;;3.95;;
32399;SDS011;45045;45.440;9.178;2023-06-26T05:45:10;6.68;;;3.95;;
32399;SDS011;45045;45.440;9.178;2023-06-26T05:47:35;7.75;;;3.92;;
32399;SDS011;45045;45.440;9.178;2023-06-26T05:50:02;10.27;;;3.85;;
32399;SDS011;45045;45.440;9.178;2023-06-26T05:52:29;8.05;;;4.47;;
32399;SDS011;45045;45.440;9.178;2023-06-26T05:54:56;6.40;;;3.83;;
32399;SDS011;45045;45.440;9.178;2023-06-26T05:57:25;8.02;;;3.88;;
32399;SDS011;45045;45.440;9.178;2023-06-26T05:59:54;9.88;;;4.38;;
32399;SDS011;45045;45.440;9.178;2023-06-26T06:02:36;8.55;;;4.10;;
32399;SDS011;45045;45.440;9.178;2023-06-26T06:05:06;7.05;;;3.88;;
32399;SDS011;45045;45.440;9.178;2023-06-26T06:07:33;8.10;;;3.95;;
32399;SDS011;45045;45.440;9.178;2023-06-26T06:09:59;8.00;;;4.78;;
32399;SDS011;45045;45.440;9.178;2023-06-26T06:12:25;12.43;;;3.97;;
32399;SDS011;45045;45.440;9.178;2023-06-26T06:14:55;7.70;;;4.05;;
32399;SDS011;45045;45.440;9.178;2023-06-26T06:17:21;8.90;;;4.30;;
32399;SDS011;45045;45.440;9.178;2023-06-26T06:19:47;8.55;;;3.83;;
32399;SDS011;45045;45.440;9.178;2023-06-26T06:22:13;6.82;;;4.00;;
32399;SDS011;45045;45.440;9.178;2023-06-26T06:24:39;6.95;;;4.43;;
32399;SDS011;45045;45.440;9.178;2023-06-26T06:27:05;8.10;;;4.43;;
32399;SDS011;45045;45.440;9.178;2023-06-26T06:29:30;8.48;;;4.00;;
32399;SDS011;45045;45.440;9.178;2023-06-26T06:31:59;9.13;;;3.95;;
32399;SDS011;45045;45.440;9.178;2023-06-26T06:34:25;7.00;;;4.15;;
32399;SDS011;45045;45.440;9.178;2023-06-26T06:36:50;8.32;;;4.65;;
32399;SDS011;45045;45.440;9.178;2023-06-26T06:39:17;8.48;;;4.60;;
32399;SDS011;45045;45.440;9.178;2023-06-26T06:41:43;8.93;;;4.32;;
32399;SDS011;45045;45.440;9.178;2023-06-26T06:44:08;7.28;;;4.50;;
32399;SDS011;45045;45.440;9.178;2023-06-26T06:46:34;6.55;;;3.70;;
32399;SDS011;45045;45.440;9.178;2023-06-26T06:52:44;8.70;;;4.63;;
32399;SDS011;45045;45.440;9.178;2023-06-26T06:55:49;7.57;;;4.50;;
32399;SDS011;45045;45.440;9.178;2023-06-26T06:58:21;8.07;;;4.40;;
32399;SDS011;45045;45.440;9.178;2023-06-26T07:00:47;7.53;;;4.05;;
32399;SDS011;45045;45.440;9.178;2023-06-26T07:03:19;6.82;;;4.40;;
32399;SDS011;45045;45.440;9.178;2023-06-26T07:06:04;7.50;;;4.07;;
32399;SDS011;45045;45.440;9.178;2023-06-26T07:08:30;8.18;;;4.72;;
32399;SDS011;45045;45.440;9.178;2023-06-26T07:10:56;10.45;;;4.68;;
32399;SDS011;45045;45.440;9.178;2023-06-26T07:13:25;8.50;;;4.03;;
32399;SDS011;45045;45.440;9.178;2023-06-26T07:15:50;8.88;;;4.80;;
32399;SDS011;45045;45.440;9.178;2023-06-26T07:18:17;9.55;;;4.40;;
32399;SDS011;45045;45.440;9.178;2023-06-26T07:20:44;8.70;;;4.38;;
32399;SDS011;45045;45.440;9.178;2023-06-26T07:23:10;9.50;;;4.57;;
32399;SDS011;45045;45.440;9.178;2023-06-26T07:25:37;7.45;;;4.18;;
32399;SDS011;45045;45.440;9.178;2023-06-26T07:28:02;9.77;;;4.75;;
32399;SDS011;45045;45.440;9.178;2023-06-26T07:30:31;8.65;;;4.40;;
32399;SDS011;45045;45.440;9.178;2023-06-26T07:32:58;9.30;;;4.80;;
32399;SDS011;45045;45.440;9.178;2023-06-26T07:35:26;10.48;;;4.55;;
32399;SDS011;45045;45.440;9.178;2023-06-26T07:37:52;8.52;;;4.20;;
32399;SDS011;45045;45.440;9.178;2023-06-26T07:40:30;9.20;;;4.50;;
32399;SDS011;45045;45.440;9.178;2023-06-26T07:43:08;7.03;;;4.22;;
32399;SDS011;45045;45.440;9.178;2023-06-26T07:45:37;12.68;;;4.47;;
32399;SDS011;45045;45.440;9.178;2023-06-26T07:48:03;7.95;;;4.00;;
32399;SDS011;45045;45.440;9.178;2023-06-26T15:43:44;7.80;;;4.25;;
32399;SDS011;45045;45.440;9.178;2023-06-26T15:46:33;10.13;;;4.57;;
32399;SDS011;45045;45.440;9.178;2023-06-26T15:49:02;7.30;;;3.80;;
32399;SDS011;45045;45.440;9.178;2023-06-26T15:51:27;8.15;;;4.05;;
32399;SDS011;45045;45.440;9.178;2023-06-26T15:53:57;6.22;;;3.70;;
32399;SDS011;45045;45.440;9.178;2023-06-26T15:56:35;8.35;;;3.92;;
32399;SDS011;45045;45.440;9.178;2023-06-26T15:59:00;10.73;;;4.10;;
32399;SDS011;45045;45.440;9.178;2023-06-26T16:01:26;6.47;;;3.83;;
32399;SDS011;45045;45.440;9.178;2023-06-26T16:03:55;8.65;;;4.13;;
32399;SDS011;45045;45.440;9.178;2023-06-26T16:06:23;8.48;;;4.47;;
32399;SDS011;45045;45.440;9.178;2023-06-26T16:08:55;7.13;;;4.30;;
32399;SDS011;45045;45.440;9.178;2023-06-26T16:11:25;6.68;;;4.00;;
32399;SDS011;45045;45.440;9.178;2023-06-26T16:13:50;7.18;;;3.83;;
32399;SDS011;45045;45.440;9.178;2023-06-26T16:16:23;6.72;;;3.60;;
32399;SDS011;45045;45.440;9.178;2023-06-26T16:18:54;8.23;;;4.38;;
32399;SDS011;45045;45.440;9.178;2023-06-26T16:21:20;12.60;;;4.20;;
32399;SDS011;45045;45.440;9.178;2023-06-26T16:23:53;5.30;;;3.72;;
32399;SDS011;45045;45.440;9.178;2023-06-26T16:26:19;5.68;;;3.75;;
32399;SDS011;45045;45.440;9.178;2023-06-26T16:32:27;7.75;;;4.25;;
32399;SDS011;45045;45.440;9.178;2023-06-26T16:50:06;7.55;;;4.40;;
32399;SDS011;45045;45.440;9.178;2023-06-26T17:40:15;8.48;;;3.63;;
32399;SDS011;45045;45.440;9.178;2023-06-26T17:43:31;7.32;;;4.00;;
32399;SDS011;45045;45.440;9.178;2023-06-26T17:47:10;8.05;;;4.18;;
32399;SDS011;45045;45.440;9.178;2023-06-26T17:49:59;10.55;;;5.22;;
32399;SDS011;45045;45.440;9.178;2023-06-26T17:52:28;5.53;;;4.00;;
32399;SDS011;45045;45.440;9.178;2023-06-26T17:55:16;6.07;;;3.70;;
32399;SDS011;45045;45.440;9.178;2023-06-26T18:05:31;5.57;;;3.60;;
32399;SDS011;45045;45.440;9.178;2023-06-26T18:16:29;8.77;;;3.85;;
32399;SDS011;45045;45.440;9.178;2023-06-26T18:53:52;7.68;;;3.95;;
32399;SDS011;45045;45.440;9.178;2023-06-26T18:56:30;8.52;;;4.65;;
32399;SDS011;45045;45.440;9.178;2023-06-26T18:59:05;7.45;;;4.53;;
32399;SDS011;45045;45.440;9.178;2023-06-26T19:01:39;9.38;;;3.92;;
32399;SDS011;45045;45.440;9.178;2023-06-26T19:07:37;8.85;;;4.97;;
32399;SDS011;45045;45.440;9.178;2023-06-26T19:13:28;6.80;;;4.68;;
32399;SDS011;45045;45.440;9.178;2023-06-26T19:22:46;6.68;;;4.22;;
32399;SDS011;45045;45.440;9.178;2023-06-26T19:28:11;9.15;;;4.00;;
32399;SDS011;45045;45.440;9.178;2023-06-26T19:42:22;9.90;;;4.13;;
32399;SDS011;45045;45.440;9.178;2023-06-26T19:55:58;8.85;;;4.90;;
32399;SDS011;45045;45.440;9.178;2023-06-26T19:58:58;9.00;;;4.50;;
32399;SDS011;45045;45.440;9.178;2023-06-26T20:08:28;8.60;;;4.28;;
32399;SDS011;45045;45.440;9.178;2023-06-26T20:11:29;9.43;;;4.72;;
32399;SDS011;45045;45.440;9.178;2023-06-26T20:18:24;9.63;;;4.78;;
32399;SDS011;45045;45.440;9.178;2023-06-26T20:20:56;8.30;;;4.95;;
32399;SDS011;45045;45.440;9.178;2023-06-26T21:37:01;9.50;;;5.22;;
32399;SDS011;45045;45.440;9.178;2023-06-26T21:40:16;11.63;;;5.40;;
32399;SDS011;45045;45.440;9.178;2023-06-26T21:43:26;10.80;;;5.18;;
32399;SDS011;45045;45.440;9.178;2023-06-26T21:55:54;9.63;;;5.55;;
32399;SDS011;45045;45.440;9.178;2023-06-26T22:53:03;10.65;;;6.00;;
32399;SDS011;45045;45.440;9.178;2023-06-26T22:59:20;9.95;;;5.75;;
32399;SDS011;45045;45.440;9.178;2023-06-26T23:02:19;10.23;;;5.43;;
32399;SDS011;45045;45.440;9.178;2023-06-26T23:05:16;12.48;;;6.20;;
32399;SDS011;45045;45.440;9.178;2023-06-26T23:11:09;10.20;;;5.90;;
32399;SDS011;45045;45.440;9.178;2023-06-26T23:14:23;11.57;;;6.18;;
32399;SDS011;45045;45.440;9.178;2023-06-26T23:23:58;11.57;;;6.47;;
32399;SDS011;45045;45.440;9.178;2023-06-26T23:26:53;8.93;;;6.25;;
32399;SDS011;45045;45.440;9.178;2023-06-26T23:29:42;9.30;;;5.25;;
32399;SDS011;45045;45.440;9.178;2023-06-26T23:32:18;10.40;;;6.20;;
32399;SDS011;45045;45.440;9.178;2023-06-26T23:35:04;10.00;;;6.22;;
32399;SDS011;45045;45.440;9.178;2023-06-26T23:38:00;13.45;;;6.07;;
32399;SDS011;45045;45.440;9.178;2023-06-26T23:43:37;9.70;;;6.88;;
32399;SDS011;45045;45.440;9.178;2023-06-26T23:56:00;11.45;;;7.60;;
32399;SDS011;45045;45.440;9.178;2023-06-26T23:58:49;14.00;;;6.50;;
